sensor_id;sensor_type;location;lat;lon;timestamp;pressure;altitude;pressure_sealevel;temperature;humidity
39949;BME280;29070;48.102;-1.652;2023-03-14T00:02:59;99277.25;;;11.45;81.18
39949;BME280;29070;48.102;-1.652;2023-03-14T00:07:59;99284.56;;;11.43;81.16
39949;BME280;29070;48.102;-1.652;2023-03-14T00:12:59;99298.72;;;11.42;81.22
39949;BME280;29070;48.102;-1.652;2023-03-14T00:18:00;99302.94;;;11.43;81.17
39949;BME280;29070;48.102;-1.652;2023-03-14T00:23:00;99306.38;;;11.44;81.16
39949;BME280;29070;48.102;-1.652;2023-03-14T00:28:02;99312.91;;;11.41;81.09
39949;BME280;29070;48.102;-1.652;2023-03-14T00:33:03;99333.44;;;11.44;81.09
39949;BME280;29070;48.102;-1.652;2023-03-14T00:38:03;99340.28;;;11.45;81.21
39949;BME280;29070;48.102;-1.652;2023-03-14T00:43:03;99349.19;;;11.44;81.29
39949;BME280;29070;48.102;-1.652;2023-03-14T00:48:04;99362.34;;;11.44;81.36
39949;BME280;29070;48.102;-1.652;2023-03-14T00:53:04;99387.94;;;11.37;81.67
39949;BME280;29070;48.102;-1.652;2023-03-14T00:58:05;99397.88;;;11.35;81.63
39949;BME280;29070;48.102;-1.652;2023-03-14T01:03:06;99437.19;;;11.30;81.95
39949;BME280;29070;48.102;-1.652;2023-03-14T01:08:07;99487.13;;;11.18;81.06
39949;BME280;29070;48.102;-1.652;2023-03-14T01:13:08;99505.25;;;10.96;78.99
39949;BME280;29070;48.102;-1.652;2023-03-14T01:18:09;99550.66;;;10.85;78.66
39949;BME280;29070;48.102;-1.652;2023-03-14T01:23:09;99559.69;;;10.77;77.98
39949;BME280;29070;48.102;-1.652;2023-03-14T01:28:09;99575.50;;;10.71;77.41
39949;BME280;29070;48.102;-1.652;2023-03-14T01:33:10;99600.59;;;10.66;77.35
39949;BME280;29070;48.102;-1.652;2023-03-14T01:38:11;99610.97;;;10.61;77.08
39949;BME280;29070;48.102;-1.652;2023-03-14T01:43:17;99625.34;;;10.59;77.07
39949;BME280;29070;48.102;-1.652;2023-03-14T01:48:17;99640.94;;;10.54;76.55
39949;BME280;29070;48.102;-1.652;2023-03-14T01:53:18;99669.88;;;10.47;76.51
39949;BME280;29070;48.102;-1.652;2023-03-14T01:58:21;99682.13;;;10.35;77.24
39949;BME280;29070;48.102;-1.652;2023-03-14T02:03:24;99704.50;;;10.12;78.05
39949;BME280;29070;48.102;-1.652;2023-03-14T02:08:27;99741.75;;;9.96;77.98
39949;BME280;29070;48.102;-1.652;2023-03-14T02:13:27;99751.91;;;9.85;78.06
39949;BME280;29070;48.102;-1.652;2023-03-14T02:18:28;99762.03;;;9.82;78.13
39949;BME280;29070;48.102;-1.652;2023-03-14T02:28:57;99783.13;;;9.62;77.73
39949;BME280;29070;48.102;-1.652;2023-03-14T02:33:58;99796.44;;;9.60;77.83
39949;BME280;29070;48.102;-1.652;2023-03-14T02:39:14;99807.16;;;9.59;77.54
39949;BME280;29070;48.102;-1.652;2023-03-14T02:44:17;99824.47;;;9.60;77.66
39949;BME280;29070;48.102;-1.652;2023-03-14T02:49:18;99834.53;;;9.63;77.96
39949;BME280;29070;48.102;-1.652;2023-03-14T02:54:19;99842.06;;;9.46;77.72
39949;BME280;29070;48.102;-1.652;2023-03-14T02:59:20;99863.28;;;9.31;77.47
39949;BME280;29070;48.102;-1.652;2023-03-14T03:04:20;99868.75;;;9.23;77.18
39949;BME280;29070;48.102;-1.652;2023-03-14T03:09:21;99875.22;;;9.13;77.25
39949;BME280;29070;48.102;-1.652;2023-03-14T03:14:21;99894.97;;;9.09;77.11
39949;BME280;29070;48.102;-1.652;2023-03-14T03:19:21;99909.09;;;9.02;76.95
39949;BME280;29070;48.102;-1.652;2023-03-14T03:24:22;99927.22;;;9.03;77.15
39949;BME280;29070;48.102;-1.652;2023-03-14T03:29:22;99932.47;;;9.03;77.54
39949;BME280;29070;48.102;-1.652;2023-03-14T03:34:22;99959.44;;;9.04;77.38
39949;BME280;29070;48.102;-1.652;2023-03-14T03:39:23;99971.09;;;9.01;77.12
39949;BME280;29070;48.102;-1.652;2023-03-14T03:44:23;99973.94;;;9.00;77.22
39949;BME280;29070;48.102;-1.652;2023-03-14T03:49:24;99993.66;;;9.02;77.22
39949;BME280;29070;48.102;-1.652;2023-03-14T03:54:24;99993.84;;;9.01;77.38
39949;BME280;29070;48.102;-1.652;2023-03-14T03:59:25;100010.78;;;8.98;77.42
39949;BME280;29070;48.102;-1.652;2023-03-14T04:04:25;100016.44;;;9.02;77.42
39949;BME280;29070;48.102;-1.652;2023-03-14T04:09:26;100033.31;;;9.06;77.53
39949;BME280;29070;48.102;-1.652;2023-03-14T04:14:26;100041.78;;;9.08;77.55
39949;BME280;29070;48.102;-1.652;2023-03-14T04:19:27;100048.25;;;9.05;77.34
39949;BME280;29070;48.102;-1.652;2023-03-14T04:24:27;100067.78;;;8.96;76.93
39949;BME280;29070;48.102;-1.652;2023-03-14T04:29:27;100070.38;;;8.89;76.48
39949;BME280;29070;48.102;-1.652;2023-03-14T04:34:28;100095.31;;;8.78;75.99
39949;BME280;29070;48.102;-1.652;2023-03-14T04:39:28;100114.81;;;8.76;76.15
39949;BME280;29070;48.102;-1.652;2023-03-14T04:44:28;100135.34;;;8.72;75.48
39949;BME280;29070;48.102;-1.652;2023-03-14T04:49:29;100160.50;;;8.73;76.11
39949;BME280;29070;48.102;-1.652;2023-03-14T04:54:29;100179.22;;;8.70;75.61
39949;BME280;29070;48.102;-1.652;2023-03-14T04:59:30;100170.91;;;8.60;74.91
39949;BME280;29070;48.102;-1.652;2023-03-14T05:04:30;100168.09;;;8.55;74.58
39949;BME280;29070;48.102;-1.652;2023-03-14T05:09:32;100186.78;;;8.52;74.61
39949;BME280;29070;48.102;-1.652;2023-03-14T05:14:33;100190.16;;;8.46;74.67
39949;BME280;29070;48.102;-1.652;2023-03-14T05:19:33;100201.56;;;8.38;74.56
39949;BME280;29070;48.102;-1.652;2023-03-14T05:24:33;100215.44;;;8.32;74.27
39949;BME280;29070;48.102;-1.652;2023-03-14T05:29:34;100225.22;;;8.23;74.12
39949;BME280;29070;48.102;-1.652;2023-03-14T05:34:34;100223.97;;;8.19;74.21
39949;BME280;29070;48.102;-1.652;2023-03-14T05:39:34;100230.59;;;8.15;74.31
39949;BME280;29070;48.102;-1.652;2023-03-14T05:44:35;100254.28;;;8.07;74.05
39949;BME280;29070;48.102;-1.652;2023-03-14T05:49:35;100252.78;;;7.97;73.53
39949;BME280;29070;48.102;-1.652;2023-03-14T05:54:35;100270.84;;;7.92;74.11
39949;BME280;29070;48.102;-1.652;2023-03-14T05:59:36;100286.66;;;7.84;73.63
39949;BME280;29070;48.102;-1.652;2023-03-14T06:04:36;100304.31;;;7.82;73.83
39949;BME280;29070;48.102;-1.652;2023-03-14T06:09:36;100319.31;;;7.73;73.55
39949;BME280;29070;48.102;-1.652;2023-03-14T06:14:37;100323.66;;;7.66;73.50
39949;BME280;29070;48.102;-1.652;2023-03-14T06:19:37;100328.88;;;7.66;73.77
39949;BME280;29070;48.102;-1.652;2023-03-14T06:24:37;100339.34;;;7.66;73.64
39949;BME280;29070;48.102;-1.652;2023-03-14T06:29:38;100345.34;;;7.67;73.54
39949;BME280;29070;48.102;-1.652;2023-03-14T06:34:38;100366.59;;;7.63;73.42
39949;BME280;29070;48.102;-1.652;2023-03-14T06:39:39;100379.94;;;7.69;73.25
39949;BME280;29070;48.102;-1.652;2023-03-14T06:44:39;100388.38;;;7.71;73.25
39949;BME280;29070;48.102;-1.652;2023-03-14T06:49:39;100399.22;;;7.68;73.25
39949;BME280;29070;48.102;-1.652;2023-03-14T06:54:40;100418.13;;;7.70;73.16
39949;BME280;29070;48.102;-1.652;2023-03-14T06:59:40;100423.97;;;7.72;73.33
39949;BME280;29070;48.102;-1.652;2023-03-14T07:04:41;100445.50;;;7.74;72.89
39949;BME280;29070;48.102;-1.652;2023-03-14T07:09:41;100459.56;;;7.73;73.20
39949;BME280;29070;48.102;-1.652;2023-03-14T07:14:41;100477.78;;;7.66;72.50
39949;BME280;29070;48.102;-1.652;2023-03-14T07:19:42;100481.19;;;7.67;72.86
39949;BME280;29070;48.102;-1.652;2023-03-14T07:24:42;100492.44;;;7.67;72.71
39949;BME280;29070;48.102;-1.652;2023-03-14T07:29:42;100501.72;;;7.70;72.68
39949;BME280;29070;48.102;-1.652;2023-03-14T07:34:43;100513.16;;;7.69;72.45
39949;BME280;29070;48.102;-1.652;2023-03-14T07:39:43;100524.34;;;7.62;72.17
39949;BME280;29070;48.102;-1.652;2023-03-14T07:44:44;100539.00;;;7.63;72.70
39949;BME280;29070;48.102;-1.652;2023-03-14T07:49:44;100533.78;;;7.63;72.70
39949;BME280;29070;48.102;-1.652;2023-03-14T07:54:44;100564.44;;;7.70;72.71
39949;BME280;29070;48.102;-1.652;2023-03-14T07:59:45;100571.91;;;7.73;72.40
39949;BME280;29070;48.102;-1.652;2023-03-14T08:04:45;100588.50;;;7.80;72.67
39949;BME280;29070;48.102;-1.652;2023-03-14T08:09:45;100593.63;;;7.88;72.83
39949;BME280;29070;48.102;-1.652;2023-03-14T08:14:46;100600.75;;;7.94;72.45
39949;BME280;29070;48.102;-1.652;2023-03-14T08:19:46;100613.09;;;8.00;72.18
39949;BME280;29070;48.102;-1.652;2023-03-14T08:24:47;100627.69;;;8.10;72.00
39949;BME280;29070;48.102;-1.652;2023-03-14T08:29:47;100630.22;;;8.18;71.97
39949;BME280;29070;48.102;-1.652;2023-03-14T08:34:48;100642.81;;;8.29;71.31
39949;BME280;29070;48.102;-1.652;2023-03-14T08:39:48;100650.69;;;8.44;71.45
39949;BME280;29070;48.102;-1.652;2023-03-14T08:44:48;100656.25;;;8.56;71.52
39949;BME280;29070;48.102;-1.652;2023-03-14T08:49:49;100673.09;;;8.68;70.95
39949;BME280;29070;48.102;-1.652;2023-03-14T08:54:49;100691.13;;;8.78;70.85
39949;BME280;29070;48.102;-1.652;2023-03-14T08:59:49;100697.06;;;8.87;70.44
39949;BME280;29070;48.102;-1.652;2023-03-14T09:04:50;100695.59;;;8.99;70.99
39949;BME280;29070;48.102;-1.652;2023-03-14T09:09:51;100709.03;;;9.11;70.39
39949;BME280;29070;48.102;-1.652;2023-03-14T09:14:51;100702.75;;;9.27;70.52
39949;BME280;29070;48.102;-1.652;2023-03-14T09:19:51;100710.09;;;9.38;69.77
39949;BME280;29070;48.102;-1.652;2023-03-14T09:24:52;100717.44;;;9.49;70.06
39949;BME280;29070;48.102;-1.652;2023-03-14T09:29:52;100725.63;;;9.61;69.74
39949;BME280;29070;48.102;-1.652;2023-03-14T09:34:53;100732.78;;;9.74;69.86
39949;BME280;29070;48.102;-1.652;2023-03-14T09:39:53;100757.38;;;9.95;69.36
39949;BME280;29070;48.102;-1.652;2023-03-14T09:45:00;100765.84;;;9.97;68.27
39949;BME280;29070;48.102;-1.652;2023-03-14T09:50:01;100768.81;;;10.15;68.52
39949;BME280;29070;48.102;-1.652;2023-03-14T09:55:05;100770.78;;;10.35;68.66
39949;BME280;29070;48.102;-1.652;2023-03-14T10:00:14;100774.69;;;10.45;67.54
39949;BME280;29070;48.102;-1.652;2023-03-14T10:05:18;100787.69;;;10.60;67.50
39949;BME280;29070;48.102;-1.652;2023-03-14T10:10:21;100795.56;;;10.60;67.01
39949;BME280;29070;48.102;-1.652;2023-03-14T10:15:25;100798.34;;;10.87;67.60
39949;BME280;29070;48.102;-1.652;2023-03-14T10:20:33;100819.44;;;11.00;66.25
39949;BME280;29070;48.102;-1.652;2023-03-14T10:25:36;100818.81;;;10.98;66.31
39949;BME280;29070;48.102;-1.652;2023-03-14T10:30:46;100828.34;;;11.06;65.85
39949;BME280;29070;48.102;-1.652;2023-03-14T10:35:53;100838.97;;;10.91;65.20
39949;BME280;29070;48.102;-1.652;2023-03-14T10:40:56;100832.31;;;10.95;65.89
39949;BME280;29070;48.102;-1.652;2023-03-14T10:46:17;100829.53;;;11.03;63.96
39949;BME280;29070;48.102;-1.652;2023-03-14T10:56:20;100845.91;;;11.54;65.04
39949;BME280;29070;48.102;-1.652;2023-03-14T11:06:50;100838.72;;;11.96;62.52
39949;BME280;29070;48.102;-1.652;2023-03-14T11:12:02;100842.38;;;12.08;62.95
39949;BME280;29070;48.102;-1.652;2023-03-14T11:22:45;100832.66;;;12.42;61.24
39949;BME280;29070;48.102;-1.652;2023-03-14T11:28:01;100846.41;;;12.44;60.39
39949;BME280;29070;48.102;-1.652;2023-03-14T11:43:37;100844.94;;;12.75;60.05
39949;BME280;29070;48.102;-1.652;2023-03-14T11:48:59;100837.63;;;12.90;54.18
39949;BME280;29070;48.102;-1.652;2023-03-14T11:54:22;100840.84;;;12.92;51.58
39949;BME280;29070;48.102;-1.652;2023-03-14T12:00:14;100847.28;;;13.10;54.96
39949;BME280;29070;48.102;-1.652;2023-03-14T12:10:10;100875.56;;;13.41;56.56
39949;BME280;29070;48.102;-1.652;2023-03-14T12:15:19;100859.13;;;13.46;53.15
39949;BME280;29070;48.102;-1.652;2023-03-14T12:20:22;100848.84;;;13.69;55.83
39949;BME280;29070;48.102;-1.652;2023-03-14T12:25:26;100857.72;;;13.82;55.29
39949;BME280;29070;48.102;-1.652;2023-03-14T12:40:56;100863.59;;;13.45;49.23
39949;BME280;29070;48.102;-1.652;2023-03-14T12:51:27;100892.59;;;13.84;54.05
39949;BME280;29070;48.102;-1.652;2023-03-14T12:57:11;100884.63;;;13.97;50.63
39949;BME280;29070;48.102;-1.652;2023-03-14T13:18:59;100909.56;;;13.63;50.45
39949;BME280;29070;48.102;-1.652;2023-03-14T13:23:36;100899.47;;;13.91;51.03
39949;BME280;29070;48.102;-1.652;2023-03-14T13:28:37;100911.84;;;14.23;50.74
39949;BME280;29070;48.102;-1.652;2023-03-14T13:33:40;100918.66;;;14.37;46.81
39949;BME280;29070;48.102;-1.652;2023-03-14T13:38:41;100927.00;;;14.34;48.69
39949;BME280;29070;48.102;-1.652;2023-03-14T13:43:43;100942.63;;;14.36;50.36
39949;BME280;29070;48.102;-1.652;2023-03-14T13:48:47;100952.63;;;14.27;51.14
39949;BME280;29070;48.102;-1.652;2023-03-14T13:53:50;100965.13;;;14.13;51.63
39949;BME280;29070;48.102;-1.652;2023-03-14T13:58:51;100959.28;;;14.04;51.94
39949;BME280;29070;48.102;-1.652;2023-03-14T14:03:54;100959.78;;;13.88;51.24
39949;BME280;29070;48.102;-1.652;2023-03-14T14:09:02;100975.34;;;13.96;51.57
39949;BME280;29070;48.102;-1.652;2023-03-14T14:14:07;100993.91;;;13.76;51.52
39949;BME280;29070;48.102;-1.652;2023-03-14T14:19:12;101001.84;;;13.76;51.78
39949;BME280;29070;48.102;-1.652;2023-03-14T14:24:14;100996.16;;;13.79;52.05
39949;BME280;29070;48.102;-1.652;2023-03-14T14:29:27;101009.56;;;13.71;50.66
39949;BME280;29070;48.102;-1.652;2023-03-14T14:34:28;101019.53;;;13.56;51.42
39949;BME280;29070;48.102;-1.652;2023-03-14T14:39:29;101008.00;;;13.50;51.20
39949;BME280;29070;48.102;-1.652;2023-03-14T14:44:33;101018.13;;;13.53;51.05
39949;BME280;29070;48.102;-1.652;2023-03-14T14:49:34;101033.28;;;13.84;51.31
39949;BME280;29070;48.102;-1.652;2023-03-14T14:54:43;101051.78;;;13.71;49.43
39949;BME280;29070;48.102;-1.652;2023-03-14T14:59:44;101062.31;;;13.78;51.19
39949;BME280;29070;48.102;-1.652;2023-03-14T15:04:46;101056.22;;;13.77;50.58
39949;BME280;29070;48.102;-1.652;2023-03-14T15:09:47;101065.53;;;13.80;50.38
39949;BME280;29070;48.102;-1.652;2023-03-14T15:14:47;101059.88;;;13.69;50.22
39949;BME280;29070;48.102;-1.652;2023-03-14T15:19:48;101068.59;;;13.77;50.34
39949;BME280;29070;48.102;-1.652;2023-03-14T15:24:48;101056.25;;;13.64;49.76
39949;BME280;29070;48.102;-1.652;2023-03-14T15:29:49;101079.59;;;13.60;49.77
39949;BME280;29070;48.102;-1.652;2023-03-14T15:34:49;101083.66;;;13.43;49.61
39949;BME280;29070;48.102;-1.652;2023-03-14T15:39:49;101076.16;;;13.46;49.83
39949;BME280;29070;48.102;-1.652;2023-03-14T15:44:50;101092.63;;;13.42;49.53
39949;BME280;29070;48.102;-1.652;2023-03-14T15:49:50;101079.19;;;13.23;49.23
39949;BME280;29070;48.102;-1.652;2023-03-14T15:54:51;101099.28;;;13.04;48.65
39949;BME280;29070;48.102;-1.652;2023-03-14T15:59:52;101092.75;;;13.00;48.66
39949;BME280;29070;48.102;-1.652;2023-03-14T16:04:52;101097.66;;;13.10;48.64
39949;BME280;29070;48.102;-1.652;2023-03-14T16:09:52;101111.22;;;12.93;48.40
39949;BME280;29070;48.102;-1.652;2023-03-14T16:14:53;101108.16;;;12.83;48.41
39949;BME280;29070;48.102;-1.652;2023-03-14T16:19:53;101103.50;;;12.92;48.54
39949;BME280;29070;48.102;-1.652;2023-03-14T16:24:53;101106.16;;;12.92;48.69
39949;BME280;29070;48.102;-1.652;2023-03-14T16:29:54;101117.28;;;12.81;48.71
39949;BME280;29070;48.102;-1.652;2023-03-14T16:34:54;101127.81;;;12.81;48.70
39949;BME280;29070;48.102;-1.652;2023-03-14T16:39:54;101137.91;;;12.64;49.08
39949;BME280;29070;48.102;-1.652;2023-03-14T16:44:55;101149.22;;;12.57;49.56
39949;BME280;29070;48.102;-1.652;2023-03-14T16:49:55;101155.88;;;12.47;49.81
39949;BME280;29070;48.102;-1.652;2023-03-14T16:54:55;101166.34;;;12.33;50.06
39949;BME280;29070;48.102;-1.652;2023-03-14T16:59:56;101164.78;;;12.04;50.04
39949;BME280;29070;48.102;-1.652;2023-03-14T17:04:56;101183.31;;;11.96;50.34
39949;BME280;29070;48.102;-1.652;2023-03-14T17:09:57;101183.59;;;11.79;50.43
39949;BME280;29070;48.102;-1.652;2023-03-14T17:14:59;101183.69;;;11.64;50.77
39949;BME280;29070;48.102;-1.652;2023-03-14T17:19:59;101203.09;;;11.63;50.75
39949;BME280;29070;48.102;-1.652;2023-03-14T17:25:00;101212.91;;;11.55;51.09
39949;BME280;29070;48.102;-1.652;2023-03-14T17:30:02;101222.72;;;11.39;51.55
39949;BME280;29070;48.102;-1.652;2023-03-14T17:35:03;101234.97;;;11.32;51.77
39949;BME280;29070;48.102;-1.652;2023-03-14T17:40:03;101248.88;;;11.11;51.94
39949;BME280;29070;48.102;-1.652;2023-03-14T17:45:05;101257.31;;;11.06;52.42
39949;BME280;29070;48.102;-1.652;2023-03-14T17:50:06;101262.88;;;10.97;52.59
39949;BME280;29070;48.102;-1.652;2023-03-14T17:55:08;101263.88;;;10.81;52.97
39949;BME280;29070;48.102;-1.652;2023-03-14T18:00:09;101274.88;;;10.70;52.71
39949;BME280;29070;48.102;-1.652;2023-03-14T18:05:10;101276.31;;;10.57;53.03
39949;BME280;29070;48.102;-1.652;2023-03-14T18:10:11;101286.16;;;10.40;53.41
39949;BME280;29070;48.102;-1.652;2023-03-14T18:15:13;101285.09;;;10.26;53.68
39949;BME280;29070;48.102;-1.652;2023-03-14T18:20:13;101291.69;;;10.22;53.65
39949;BME280;29070;48.102;-1.652;2023-03-14T18:25:14;101314.28;;;10.08;53.91
39949;BME280;29070;48.102;-1.652;2023-03-14T18:30:14;101322.06;;;10.02;54.13
39949;BME280;29070;48.102;-1.652;2023-03-14T18:35:16;101340.94;;;9.97;54.43
39949;BME280;29070;48.102;-1.652;2023-03-14T18:40:16;101357.41;;;9.83;54.75
39949;BME280;29070;48.102;-1.652;2023-03-14T18:45:18;101356.66;;;9.74;54.92
39949;BME280;29070;48.102;-1.652;2023-03-14T18:50:20;101361.84;;;9.59;54.91
39949;BME280;29070;48.102;-1.652;2023-03-14T18:55:21;101371.53;;;9.50;55.49
39949;BME280;29070;48.102;-1.652;2023-03-14T19:00:22;101368.31;;;9.40;55.86
39949;BME280;29070;48.102;-1.652;2023-03-14T19:05:22;101379.47;;;9.34;56.07
39949;BME280;29070;48.102;-1.652;2023-03-14T19:10:23;101378.16;;;9.30;55.85
39949;BME280;29070;48.102;-1.652;2023-03-14T19:15:24;101381.97;;;9.19;56.45
39949;BME280;29070;48.102;-1.652;2023-03-14T19:20:25;101388.59;;;9.07;56.64
39949;BME280;29070;48.102;-1.652;2023-03-14T19:25:25;101394.16;;;8.95;56.64
39949;BME280;29070;48.102;-1.652;2023-03-14T19:30:26;101390.75;;;8.87;56.81
39949;BME280;29070;48.102;-1.652;2023-03-14T19:35:29;101394.34;;;8.77;57.02
39949;BME280;29070;48.102;-1.652;2023-03-14T19:40:29;101388.97;;;8.71;57.34
39949;BME280;29070;48.102;-1.652;2023-03-14T19:45:30;101401.25;;;8.62;57.18
39949;BME280;29070;48.102;-1.652;2023-03-14T19:50:32;101404.69;;;8.54;57.49
39949;BME280;29070;48.102;-1.652;2023-03-14T19:55:33;101415.31;;;8.45;57.70
39949;BME280;29070;48.102;-1.652;2023-03-14T20:00:33;101420.66;;;8.35;57.63
39949;BME280;29070;48.102;-1.652;2023-03-14T20:05:38;101421.16;;;8.22;57.98
39949;BME280;29070;48.102;-1.652;2023-03-14T20:10:38;101423.09;;;8.12;58.06
39949;BME280;29070;48.102;-1.652;2023-03-14T20:15:40;101440.75;;;8.01;58.27
39949;BME280;29070;48.102;-1.652;2023-03-14T20:20:40;101457.22;;;7.94;58.36
39949;BME280;29070;48.102;-1.652;2023-03-14T20:25:41;101467.47;;;7.79;58.35
39949;BME280;29070;48.102;-1.652;2023-03-14T20:30:42;101465.28;;;7.66;58.88
39949;BME280;29070;48.102;-1.652;2023-03-14T20:35:43;101470.63;;;7.56;58.70
39949;BME280;29070;48.102;-1.652;2023-03-14T20:40:46;101477.06;;;7.36;58.80
39949;BME280;29070;48.102;-1.652;2023-03-14T20:45:54;101483.53;;;7.23;59.58
39949;BME280;29070;48.102;-1.652;2023-03-14T20:50:54;101482.78;;;7.13;59.66
39949;BME280;29070;48.102;-1.652;2023-03-14T20:55:56;101491.41;;;7.05;59.48
39949;BME280;29070;48.102;-1.652;2023-03-14T21:00:56;101500.28;;;6.95;60.15
39949;BME280;29070;48.102;-1.652;2023-03-14T21:05:57;101498.44;;;6.87;59.80
39949;BME280;29070;48.102;-1.652;2023-03-14T21:10:57;101492.63;;;6.75;59.93
39949;BME280;29070;48.102;-1.652;2023-03-14T21:15:59;101487.94;;;6.61;60.09
39949;BME280;29070;48.102;-1.652;2023-03-14T21:21:00;101496.28;;;6.46;60.34
39949;BME280;29070;48.102;-1.652;2023-03-14T21:26:01;101499.78;;;6.37;60.69
39949;BME280;29070;48.102;-1.652;2023-03-14T21:31:08;101504.63;;;6.32;60.95
39949;BME280;29070;48.102;-1.652;2023-03-14T21:36:10;101506.41;;;6.14;60.63
39949;BME280;29070;48.102;-1.652;2023-03-14T21:41:11;101499.59;;;6.03;60.69
39949;BME280;29070;48.102;-1.652;2023-03-14T21:46:11;101501.25;;;5.94;61.13
39949;BME280;29070;48.102;-1.652;2023-03-14T21:51:12;101502.13;;;5.85;61.18
39949;BME280;29070;48.102;-1.652;2023-03-14T21:56:12;101499.41;;;5.77;61.50
39949;BME280;29070;48.102;-1.652;2023-03-14T22:01:13;101498.22;;;5.71;61.66
39949;BME280;29070;48.102;-1.652;2023-03-14T22:06:13;101490.13;;;5.64;61.75
39949;BME280;29070;48.102;-1.652;2023-03-14T22:11:14;101484.97;;;5.54;61.80
39949;BME280;29070;48.102;-1.652;2023-03-14T22:16:14;101499.53;;;5.38;61.58
39949;BME280;29070;48.102;-1.652;2023-03-14T22:21:14;101506.56;;;5.27;62.15
39949;BME280;29070;48.102;-1.652;2023-03-14T22:26:16;101515.47;;;5.25;62.40
39949;BME280;29070;48.102;-1.652;2023-03-14T22:31:17;101516.44;;;5.14;62.24
39949;BME280;29070;48.102;-1.652;2023-03-14T22:36:17;101523.16;;;5.07;62.57
39949;BME280;29070;48.102;-1.652;2023-03-14T22:41:17;101533.84;;;5.04;62.90
39949;BME280;29070;48.102;-1.652;2023-03-14T22:46:18;101530.03;;;4.98;62.96
39949;BME280;29070;48.102;-1.652;2023-03-14T22:51:18;101517.72;;;4.90;63.13
39949;BME280;29070;48.102;-1.652;2023-03-14T22:56:19;101507.84;;;4.84;63.31
39949;BME280;29070;48.102;-1.652;2023-03-14T23:01:19;101508.81;;;4.83;63.88
39949;BME280;29070;48.102;-1.652;2023-03-14T23:06:20;101510.84;;;4.89;64.15
39949;BME280;29070;48.102;-1.652;2023-03-14T23:11:20;101522.38;;;4.87;64.10
39949;BME280;29070;48.102;-1.652;2023-03-14T23:16:20;101528.66;;;4.84;64.24
39949;BME280;29070;48.102;-1.652;2023-03-14T23:21:21;101523.88;;;4.80;64.16
39949;BME280;29070;48.102;-1.652;2023-03-14T23:26:26;101521.28;;;4.80;64.68
39949;BME280;29070;48.102;-1.652;2023-03-14T23:31:26;101531.56;;;4.81;64.69
39949;BME280;29070;48.102;-1.652;2023-03-14T23:36:27;101530.84;;;4.89;65.19
39949;BME280;29070;48.102;-1.652;2023-03-14T23:41:28;101529.47;;;4.94;65.24
39949;BME280;29070;48.102;-1.652;2023-03-14T23:46:29;101538.50;;;5.00;65.60
39949;BME280;29070;48.102;-1.652;2023-03-14T23:51:30;101556.19;;;5.06;65.95
39949;BME280;29070;48.102;-1.652;2023-03-14T23:56:30;101552.22;;;5.12;65.99
